Deo Volente — PHFJ — position and weather

sailwx.info

Track history (hours):
 
Tides and Currents Weather Stations Pressure Air Temp Water Temp Dewpoint Dewpoint Depression Visibility Wind Speed Wind Dir Waves Ship Positions

Deo Volente

Last reported at 2016-Aug-26 04:33 UTC. Time now 2016-Aug-26 04:57 UTC.
Position N 49°04' W 005°21'.

Length 105 m; draft 5.1 m.

Type: Cargo ship. MMSI: 246518000.

Date/timePositionNaut miles runAvg speedWind from/ knotsBaromVisibWave heightAir tempDewpointWater temp
2016-Aug-26 04:33N 49°04' W 005°21'1716.5
2016-Aug-26 03:33N 49°13' W 004°59'1616.4
2016-Aug-26 02:33N 49°22' W 004°38'1615.7
2016-Aug-26 01:33N 49°31' W 004°18'1515.2
2016-Aug-26 00:33N 49°39' W 003°59'1514.8
2016-Aug-25 23:31N 49°48' W 003°39'1415.0
2016-Aug-25 22:33N 49°56' W 003°21'1515.1
2016-Aug-25 21:33N 50°05' W 003°01'1615.8
2016-Aug-25 20:34N 50°13' W 002°41'1716.8
2016-Aug-25 19:33N 50°23' W 002°19'1817.6
2016-Aug-25 18:33N 50°34' W 001°57'9 9.2
2016-Aug-25 17:33N 50°43' W 001°59'0 0.0
2016-Aug-25 16:33N 50°43' W 001°59'0 0.0
2016-Aug-25 15:33N 50°43' W 001°59'0 0.0
2016-Aug-25 14:33N 50°43' W 001°59'0 0.0
2016-Aug-25 13:33N 50°43' W 001°59'0 0.0
2016-Aug-25 12:33N 50°43' W 001°59'0 0.0
2016-Aug-25 11:34N 50°43' W 001°59'0 0.0
2016-Aug-25 10:34N 50°43' W 001°59'0 0.0
2016-Aug-25 09:33N 50°43' W 001°59'0 0.0
2016-Aug-25 08:33N 50°43' W 001°59'0 0.0
2016-Aug-25 07:34N 50°43' W 001°59'2 1.7
2016-Aug-25 06:34N 50°42' W 001°57'3215.9
2016-Aug-25 04:33N 50°31' W 001°10'1818.2
2016-Aug-25 03:33N 50°32' W 000°41'1716.6
2016-Aug-25 02:34N 50°32' W 000°15'1615.8
2016-Aug-25 01:33N 50°35' E 000°10'1616.0
2016-Aug-25 00:32N 50°39' E 000°34'1817.7
2016-Aug-24 23:31N 50°49' E 000°58'1819.1
2016-Aug-24 22:33N 51°01' E 001°21'1919.0
2016-Aug-24 21:33N 51°14' E 001°43'1817.5
2016-Aug-24 20:33N 51°27' E 002°01'1716.7
2016-Aug-24 19:33N 51°40' E 002°18'1616.0
2016-Aug-24 18:32N 51°53' E 002°34'3316.3
2016-Aug-24 16:30N 52°19' E 003°07'1717.9
2016-Aug-24 15:32N 52°33' E 003°25'1818.5
2016-Aug-24 14:32N 52°47' E 003°43'3718.3
2016-Aug-24 12:29N 53°15' E 004°26'1616.6
2016-Aug-24 11:33N 53°28' E 004°39'1615.8
2016-Aug-24 10:34N 53°35' E 005°03'1615.5
2016-Aug-24 09:34N 53°40' E 005°28'1616.1
2016-Aug-24 08:33N 53°44' E 005°54'1817.6
2016-Aug-24 07:33N 53°50' E 006°22'1918.6
2016-Aug-24 06:33N 53°54' E 006°53'3618.0
2016-Aug-24 04:33N 54°01' E 007°53'1717.0
2016-Aug-24 03:33N 53°60' E 008°21'1514.7
2016-Aug-24 02:34N 53°52' E 008°43'1413.5
2016-Aug-24 01:33N 53°53' E 009°06'3 2.8
2016-Aug-24 00:34N 53°54' E 009°10'8 7.5
2016-Aug-23 23:33N 54°00' E 009°18'8 8.2
2016-Aug-23 22:31N 54°09' E 009°21'8 8.6
2016-Aug-23 21:33N 54°12' E 009°34'15 7.1
2016-Aug-23 19:31N 54°21' E 009°53'6 6.2
2016-Aug-23 18:33N 54°22' E 010°03'3 2.9
2016-Aug-23 17:34N 54°22' E 010°08'10 9.2
2016-Aug-23 16:31N 54°30' E 010°18'1516.2
2016-Aug-23 15:33N 54°35' E 010°43'1717.3
2016-Aug-23 14:33N 54°36' E 011°13'1717.2
2016-Aug-23 13:33N 54°29' E 011°40'1716.5
2016-Aug-23 12:33N 54°28' E 012°08'1716.9
2016-Aug-23 11:33N 54°37' E 012°32'5116.9
2016-Aug-23 08:32N 54°42' E 014°00'1917.2
2016-Aug-23 07:27N 54°42' E 014°33'1517.1
2016-Aug-23 06:33N 54°44' E 014°59'6716.6
2016-Aug-23 02:33N 54°53' E 016°54'1716.9
2016-Aug-23 01:33N 54°55' E 017°22'1717.0
2016-Aug-23 00:33N 54°54' E 017°52'1717.0
2016-Aug-22 23:33N 54°53' E 018°21'1716.8
2016-Aug-22 22:33N 54°45' E 018°47'1312.9
2016-Aug-22 21:33N 54°32' E 018°49'9 9.2
2016-Aug-22 20:33N 54°24' E 018°39'0 0.0
2016-Aug-22 19:34N 54°24' E 018°39'0 0.0
2016-Aug-22 18:33N 54°24' E 018°39'0 0.0
2016-Aug-22 17:33N 54°24' E 018°39'0 0.0
2016-Aug-22 16:33N 54°24' E 018°39'0 0.0
2016-Aug-22 15:33N 54°24' E 018°39'0 0.0
2016-Aug-22 14:33N 54°24' E 018°39'4 4.1
2016-Aug-22 13:34N 54°28' E 018°42'1515.2
2016-Aug-22 12:33N 54°42' E 018°55'1717.1
2016-Aug-22 11:34N 54°54' E 018°35'1616.0
2016-Aug-22 10:33N 54°58' E 018°08'1717.1
2016-Aug-22 09:34N 54°59' E 017°38'1917.1
2016-Aug-22 08:28N 54°60' E 017°06'3917.0
2016-Aug-22 06:10N 54°59' E 015°58'1017.1
2016-Aug-22 05:33N 54°58' E 015°39'1717.4
2016-Aug-22 04:33N 54°57' E 015°09'1717.0
2016-Aug-22 03:34N 54°58' E 014°40'1717.1
2016-Aug-22 02:33N 55°00' E 014°10'1716.9
2016-Aug-22 01:33N 55°05' E 013°42'1717.2
2016-Aug-22 00:33N 55°11' E 013°13'1717.0
2016-Aug-21 23:34N 55°16' E 012°45'1414.0
2016-Aug-21 22:33N 55°30' E 012°41'1515.0
2016-Aug-21 21:33N 55°45' E 012°41'1616.2
2016-Aug-21 20:33N 56°01' E 012°38'1514.8
2016-Aug-21 19:34N 56°13' E 012°23'2117.0
2016-Aug-21 18:18N 56°31' E 011°60'1316.7
2016-Aug-21 17:33N 56°42' E 011°52'1716.9
2016-Aug-21 16:33N 56°58' E 011°41'1716.6
2016-Aug-21 15:33N 57°14' E 011°29'1616.1
2016-Aug-21 14:33N 57°28' E 011°18'1616.1
2016-Aug-21 13:33N 57°40' E 010°57'1614.9
2016-Aug-21 12:31N 57°47' E 010°32'10116.7
2016-Aug-21 06:28N 57°55' E 007°23'1516.8
2016-Aug-21 05:33N 57°58' E 006°55'1616.4
2016-Aug-21 04:33N 58°06' E 006°27'1615.6
2016-Aug-21 03:33N 58°16' E 006°04'1515.5
2016-Aug-21 02:33N 58°26' E 005°43'1616.0
2016-Aug-21 01:34N 58°40' E 005°26'1716.6
2016-Aug-21 00:33N 58°54' E 005°10'1716.5
2016-Aug-20 23:33N 59°09' E 004°55'1616.0
2016-Aug-20 22:33N 59°24' E 004°46'36015.6
2016-Aug-19 23:25N 64°42' E 010°49'1315.5
2016-Aug-19 22:33N 64°51' E 011°12'1 1.4
2016-Aug-19 21:33N 64°52' E 011°14'7 7.2
2016-Aug-19 20:33N 64°46' E 011°03'34714.8
2016-Aug-18 21:09N 59°47' E 004°46'813.7
2016-Aug-18 20:34N 59°39' E 004°44'1716.6
2016-Aug-18 19:34N 59°23' E 004°48'1716.8
2016-Aug-18 18:33N 59°06' E 004°56'1717.3
2016-Aug-18 17:34N 58°51' E 005°12'1716.7
2016-Aug-18 16:34N 58°36' E 005°27'1716.6
2016-Aug-18 15:33N 58°23' E 005°47'1716.5
2016-Aug-18 14:33N 58°12' E 006°11'1616.3
2016-Aug-18 13:33N 58°02' E 006°35'1515.2
2016-Aug-18 12:33N 57°57' E 007°02'105 8.8
2016-Aug-18 00:33N 56°15' E 007°55'1615.7
2016-Aug-17 23:33N 55°60' E 007°53'1515.4
2016-Aug-17 22:33N 55°45' E 007°50'1313.4
2016-Aug-17 21:34N 55°32' E 007°54'1313.2
2016-Aug-17 20:33N 55°26' E 008°15'7 6.6
2016-Aug-17 19:33N 55°27' E 008°27'0 0.0
2016-Aug-17 18:33N 55°27' E 008°27'0 0.0
2016-Aug-17 17:34N 55°27' E 008°27'0 0.0
2016-Aug-17 16:34N 55°27' E 008°27'0 0.1
2016-Aug-17 15:34N 55°27' E 008°27'0 0.0
2016-Aug-17 14:34N 55°27' E 008°27'0 0.0
2016-Aug-17 13:33N 55°27' E 008°27'0 0.0
2016-Aug-17 12:34N 55°27' E 008°27'0 0.0
2016-Aug-17 11:34N 55°27' E 008°27'0 0.0
2016-Aug-17 10:33N 55°27' E 008°27'0 0.0
2016-Aug-17 09:33N 55°27' E 008°27'0 0.0
2016-Aug-17 08:33N 55°27' E 008°27'0 0.0
2016-Aug-17 07:33N 55°27' E 008°27'0 0.0
2016-Aug-17 06:33N 55°27' E 008°27'0 0.0
2016-Aug-17 05:33N 55°27' E 008°27'0 0.0
2016-Aug-17 04:33N 55°27' E 008°27'0 0.0
2016-Aug-17 03:33N 55°27' E 008°27'0 0.0
2016-Aug-17 02:33N 55°27' E 008°27'0 0.0
2016-Aug-17 01:33N 55°27' E 008°27'0 0.0
2016-Aug-17 00:33N 55°27' E 008°27'2 2.1
2016-Aug-16 23:34N 55°29' E 008°24'1414.0
2016-Aug-16 22:33N 55°17' E 008°09'2015.2
2016-Aug-16 21:14N 54°58' E 008°01'1014.8
2016-Aug-16 20:32N 54°48' E 007°56'1414.5
2016-Aug-16 19:33N 54°34' E 007°53'1514.7
2016-Aug-16 18:34N 54°20' E 007°47'1515.0
2016-Aug-16 17:34N 54°05' E 007°40'1413.6
2016-Aug-16 16:33N 53°53' E 007°49'1514.5
2016-Aug-16 15:33N 53°46' E 008°11'1715.9
2016-Aug-16 14:27N 53°34' E 008°32'3 3.2
2016-Aug-16 13:27N 53°31' E 008°35'0 0.0
2016-Aug-16 12:31N 53°31' E 008°35'0 0.0
2016-Aug-16 11:33N 53°31' E 008°35'0 0.0
2016-Aug-16 10:31N 53°31' E 008°35'0 0.0
2016-Aug-16 09:33N 53°31' E 008°35'0 0.0
2016-Aug-16 08:19N 53°31' E 008°35'0 0.0
2016-Aug-16 07:26N 53°31' E 008°35'0 0.0
2016-Aug-16 06:33N 53°31' E 008°35'  
Track history (hours):
 
Tides and Currents Weather Stations Pressure Air Temp Water Temp Dewpoint Dewpoint Depression Visibility Wind Speed Wind Dir Waves Ship Positions

Deo Volente

Last reported at 2016-Aug-26 04:33 UTC. Time now 2016-Aug-26 04:57 UTC.
Position N 49°04' W 005°21'.

Length 105 m; draft 5.1 m.

Type: Cargo ship. MMSI: 246518000.

Date/timePositionNaut miles runAvg speedWind from/ knotsBaromVisibWave heightAir tempDewpointWater temp
2016-Aug-26 04:33N 49°04' W 005°21'1716.5
2016-Aug-26 03:33N 49°13' W 004°59'1616.4
2016-Aug-26 02:33N 49°22' W 004°38'1615.7
2016-Aug-26 01:33N 49°31' W 004°18'1515.2
2016-Aug-26 00:33N 49°39' W 003°59'1514.8
2016-Aug-25 23:31N 49°48' W 003°39'1415.0
2016-Aug-25 22:33N 49°56' W 003°21'1515.1
2016-Aug-25 21:33N 50°05' W 003°01'1615.8
2016-Aug-25 20:34N 50°13' W 002°41'1716.8
2016-Aug-25 19:33N 50°23' W 002°19'1817.6
2016-Aug-25 18:33N 50°34' W 001°57'9 9.2
2016-Aug-25 17:33N 50°43' W 001°59'0 0.0
2016-Aug-25 16:33N 50°43' W 001°59'0 0.0
2016-Aug-25 15:33N 50°43' W 001°59'0 0.0
2016-Aug-25 14:33N 50°43' W 001°59'0 0.0
2016-Aug-25 13:33N 50°43' W 001°59'0 0.0
2016-Aug-25 12:33N 50°43' W 001°59'0 0.0
2016-Aug-25 11:34N 50°43' W 001°59'0 0.0
2016-Aug-25 10:34N 50°43' W 001°59'0 0.0
2016-Aug-25 09:33N 50°43' W 001°59'0 0.0
2016-Aug-25 08:33N 50°43' W 001°59'0 0.0
2016-Aug-25 07:34N 50°43' W 001°59'2 1.7
2016-Aug-25 06:34N 50°42' W 001°57'3215.9
2016-Aug-25 04:33N 50°31' W 001°10'1818.2
2016-Aug-25 03:33N 50°32' W 000°41'1716.6
2016-Aug-25 02:34N 50°32' W 000°15'1615.8
2016-Aug-25 01:33N 50°35' E 000°10'1616.0
2016-Aug-25 00:32N 50°39' E 000°34'1817.7
2016-Aug-24 23:31N 50°49' E 000°58'1819.1
2016-Aug-24 22:33N 51°01' E 001°21'1919.0
2016-Aug-24 21:33N 51°14' E 001°43'1817.5
2016-Aug-24 20:33N 51°27' E 002°01'1716.7
2016-Aug-24 19:33N 51°40' E 002°18'1616.0
2016-Aug-24 18:32N 51°53' E 002°34'3316.3
2016-Aug-24 16:30N 52°19' E 003°07'1717.9
2016-Aug-24 15:32N 52°33' E 003°25'1818.5
2016-Aug-24 14:32N 52°47' E 003°43'3718.3
2016-Aug-24 12:29N 53°15' E 004°26'1616.6
2016-Aug-24 11:33N 53°28' E 004°39'1615.8
2016-Aug-24 10:34N 53°35' E 005°03'1615.5
2016-Aug-24 09:34N 53°40' E 005°28'1616.1
2016-Aug-24 08:33N 53°44' E 005°54'1817.6
2016-Aug-24 07:33N 53°50' E 006°22'1918.6
2016-Aug-24 06:33N 53°54' E 006°53'3618.0
2016-Aug-24 04:33N 54°01' E 007°53'1717.0
2016-Aug-24 03:33N 53°60' E 008°21'1514.7
2016-Aug-24 02:34N 53°52' E 008°43'1413.5
2016-Aug-24 01:33N 53°53' E 009°06'3 2.8
2016-Aug-24 00:34N 53°54' E 009°10'8 7.5
2016-Aug-23 23:33N 54°00' E 009°18'8 8.2
2016-Aug-23 22:31N 54°09' E 009°21'8 8.6
2016-Aug-23 21:33N 54°12' E 009°34'15 7.1
2016-Aug-23 19:31N 54°21' E 009°53'6 6.2
2016-Aug-23 18:33N 54°22' E 010°03'3 2.9
2016-Aug-23 17:34N 54°22' E 010°08'10 9.2
2016-Aug-23 16:31N 54°30' E 010°18'1516.2
2016-Aug-23 15:33N 54°35' E 010°43'1717.3
2016-Aug-23 14:33N 54°36' E 011°13'1717.2
2016-Aug-23 13:33N 54°29' E 011°40'1716.5
2016-Aug-23 12:33N 54°28' E 012°08'1716.9
2016-Aug-23 11:33N 54°37' E 012°32'5116.9
2016-Aug-23 08:32N 54°42' E 014°00'1917.2
2016-Aug-23 07:27N 54°42' E 014°33'1517.1
2016-Aug-23 06:33N 54°44' E 014°59'6716.6
2016-Aug-23 02:33N 54°53' E 016°54'1716.9
2016-Aug-23 01:33N 54°55' E 017°22'1717.0
2016-Aug-23 00:33N 54°54' E 017°52'1717.0
2016-Aug-22 23:33N 54°53' E 018°21'1716.8
2016-Aug-22 22:33N 54°45' E 018°47'1312.9
2016-Aug-22 21:33N 54°32' E 018°49'9 9.2
2016-Aug-22 20:33N 54°24' E 018°39'0 0.0
2016-Aug-22 19:34N 54°24' E 018°39'0 0.0
2016-Aug-22 18:33N 54°24' E 018°39'0 0.0
2016-Aug-22 17:33N 54°24' E 018°39'0 0.0
2016-Aug-22 16:33N 54°24' E 018°39'0 0.0
2016-Aug-22 15:33N 54°24' E 018°39'0 0.0
2016-Aug-22 14:33N 54°24' E 018°39'4 4.1
2016-Aug-22 13:34N 54°28' E 018°42'1515.2
2016-Aug-22 12:33N 54°42' E 018°55'1717.1
2016-Aug-22 11:34N 54°54' E 018°35'1616.0
2016-Aug-22 10:33N 54°58' E 018°08'1717.1
2016-Aug-22 09:34N 54°59' E 017°38'1917.1
2016-Aug-22 08:28N 54°60' E 017°06'3917.0
2016-Aug-22 06:10N 54°59' E 015°58'1017.1
2016-Aug-22 05:33N 54°58' E 015°39'1717.4
2016-Aug-22 04:33N 54°57' E 015°09'1717.0
2016-Aug-22 03:34N 54°58' E 014°40'1717.1
2016-Aug-22 02:33N 55°00' E 014°10'1716.9
2016-Aug-22 01:33N 55°05' E 013°42'1717.2
2016-Aug-22 00:33N 55°11' E 013°13'1717.0
2016-Aug-21 23:34N 55°16' E 012°45'1414.0
2016-Aug-21 22:33N 55°30' E 012°41'1515.0
2016-Aug-21 21:33N 55°45' E 012°41'1616.2
2016-Aug-21 20:33N 56°01' E 012°38'1514.8
2016-Aug-21 19:34N 56°13' E 012°23'2117.0
2016-Aug-21 18:18N 56°31' E 011°60'1316.7
2016-Aug-21 17:33N 56°42' E 011°52'1716.9
2016-Aug-21 16:33N 56°58' E 011°41'1716.6
2016-Aug-21 15:33N 57°14' E 011°29'1616.1
2016-Aug-21 14:33N 57°28' E 011°18'1616.1
2016-Aug-21 13:33N 57°40' E 010°57'1614.9
2016-Aug-21 12:31N 57°47' E 010°32'10116.7
2016-Aug-21 06:28N 57°55' E 007°23'1516.8
2016-Aug-21 05:33N 57°58' E 006°55'1616.4
2016-Aug-21 04:33N 58°06' E 006°27'1615.6
2016-Aug-21 03:33N 58°16' E 006°04'1515.5
2016-Aug-21 02:33N 58°26' E 005°43'1616.0
2016-Aug-21 01:34N 58°40' E 005°26'1716.6
2016-Aug-21 00:33N 58°54' E 005°10'1716.5
2016-Aug-20 23:33N 59°09' E 004°55'1616.0
2016-Aug-20 22:33N 59°24' E 004°46'36015.6
2016-Aug-19 23:25N 64°42' E 010°49'1315.5
2016-Aug-19 22:33N 64°51' E 011°12'1 1.4
2016-Aug-19 21:33N 64°52' E 011°14'7 7.2
2016-Aug-19 20:33N 64°46' E 011°03'34714.8
2016-Aug-18 21:09N 59°47' E 004°46'813.7
2016-Aug-18 20:34N 59°39' E 004°44'1716.6
2016-Aug-18 19:34N 59°23' E 004°48'1716.8
2016-Aug-18 18:33N 59°06' E 004°56'1717.3
2016-Aug-18 17:34N 58°51' E 005°12'1716.7
2016-Aug-18 16:34N 58°36' E 005°27'1716.6
2016-Aug-18 15:33N 58°23' E 005°47'1716.5
2016-Aug-18 14:33N 58°12' E 006°11'1616.3
2016-Aug-18 13:33N 58°02' E 006°35'1515.2
2016-Aug-18 12:33N 57°57' E 007°02'105 8.8
2016-Aug-18 00:33N 56°15' E 007°55'1615.7
2016-Aug-17 23:33N 55°60' E 007°53'1515.4
2016-Aug-17 22:33N 55°45' E 007°50'1313.4
2016-Aug-17 21:34N 55°32' E 007°54'1313.2
2016-Aug-17 20:33N 55°26' E 008°15'7 6.6
2016-Aug-17 19:33N 55°27' E 008°27'0 0.0
2016-Aug-17 18:33N 55°27' E 008°27'0 0.0
2016-Aug-17 17:34N 55°27' E 008°27'0 0.0
2016-Aug-17 16:34N 55°27' E 008°27'0 0.1
2016-Aug-17 15:34N 55°27' E 008°27'0 0.0
2016-Aug-17 14:34N 55°27' E 008°27'0 0.0
2016-Aug-17 13:33N 55°27' E 008°27'0 0.0
2016-Aug-17 12:34N 55°27' E 008°27'0 0.0
2016-Aug-17 11:34N 55°27' E 008°27'0 0.0
2016-Aug-17 10:33N 55°27' E 008°27'0 0.0
2016-Aug-17 09:33N 55°27' E 008°27'0 0.0
2016-Aug-17 08:33N 55°27' E 008°27'0 0.0
2016-Aug-17 07:33N 55°27' E 008°27'0 0.0
2016-Aug-17 06:33N 55°27' E 008°27'0 0.0
2016-Aug-17 05:33N 55°27' E 008°27'0 0.0
2016-Aug-17 04:33N 55°27' E 008°27'0 0.0
2016-Aug-17 03:33N 55°27' E 008°27'0 0.0
2016-Aug-17 02:33N 55°27' E 008°27'0 0.0
2016-Aug-17 01:33N 55°27' E 008°27'0 0.0
2016-Aug-17 00:33N 55°27' E 008°27'2 2.1
2016-Aug-16 23:34N 55°29' E 008°24'1414.0
2016-Aug-16 22:33N 55°17' E 008°09'2015.2
2016-Aug-16 21:14N 54°58' E 008°01'1014.8
2016-Aug-16 20:32N 54°48' E 007°56'1414.5
2016-Aug-16 19:33N 54°34' E 007°53'1514.7
2016-Aug-16 18:34N 54°20' E 007°47'1515.0
2016-Aug-16 17:34N 54°05' E 007°40'1413.6
2016-Aug-16 16:33N 53°53' E 007°49'1514.5
2016-Aug-16 15:33N 53°46' E 008°11'1715.9
2016-Aug-16 14:27N 53°34' E 008°32'3 3.2
2016-Aug-16 13:27N 53°31' E 008°35'0 0.0
2016-Aug-16 12:31N 53°31' E 008°35'0 0.0
2016-Aug-16 11:33N 53°31' E 008°35'0 0.0
2016-Aug-16 10:31N 53°31' E 008°35'0 0.0
2016-Aug-16 09:33N 53°31' E 008°35'0 0.0
2016-Aug-16 08:19N 53°31' E 008°35'0 0.0
2016-Aug-16 07:26N 53°31' E 008°35'0 0.0
2016-Aug-16 06:33N 53°31' E 008°35'  

Dump ship's entire track history